Time;durP1;ratioP1;P1;durP2;ratioP2;P2;SDS_P1;SDS_P2;PMS_P1;PMS_P2;Temp;Humidity;BMP_temperature;BMP_pressure;BME280_temperature;BME280_humidity;BME280_pressure;Samples;Min_cycle;Max_cycle;Signal;HPM_P1;HPM_P2
2022/02/02 00:00:33;;;;;;;4.47;2.10;;;;;;;;;;5090319;28;20054;-68
2022/02/02 00:03:06;;;;;;;3.88;2.00;;;;;;;;;;5090689;28;20052;-68
2022/02/02 00:05:38;;;;;;;4.60;2.40;;;;;;;;;;5091884;28;20142;-67
2022/02/02 00:08:10;;;;;;;4.90;2.00;;;;;;;;;;5091858;28;20183;-67
2022/02/02 00:11:18;;;;;;;4.80;2.33;;;;;;;;;;5092173;28;20561;-67
2022/02/02 00:13:53;;;;;;;4.25;2.30;;;;;;;;;;5091399;28;20052;-68
2022/02/02 00:16:36;;;;;;;5.72;2.13;;;;;;;;;;5092008;28;20052;-67
2022/02/02 00:19:09;;;;;;;5.07;2.20;;;;;;;;;;5091943;28;20151;-67
2022/02/02 00:21:43;;;;;;;6.28;2.47;;;;;;;;;;5092117;28;20092;-67
2022/02/02 00:24:21;;;;;;;6.47;2.47;;;;;;;;;;5091879;28;20048;-69
2022/02/02 00:26:51;;;;;;;4.93;2.10;;;;;;;;;;5091841;28;20052;-67
2022/02/02 00:29:22;;;;;;;4.72;2.35;;;;;;;;;;5092074;28;20052;-69
2022/02/02 00:31:55;;;;;;;4.38;2.03;;;;;;;;;;5092213;28;20517;-68
2022/02/02 00:34:25;;;;;;;5.80;2.42;;;;;;;;;;5091926;28;20054;-67
2022/02/02 00:36:56;;;;;;;4.10;2.22;;;;;;;;;;5091994;28;20105;-67
2022/02/02 00:39:25;;;;;;;3.95;1.90;;;;;;;;;;5091870;28;20147;-67
2022/02/02 00:41:54;;;;;;;6.18;2.38;;;;;;;;;;5092124;28;20492;-66
2022/02/02 00:44:21;;;;;;;5.13;2.28;;;;;;;;;;5092083;28;20083;-67
2022/02/02 00:46:48;;;;;;;4.57;2.38;;;;;;;;;;5091720;28;20084;-67
2022/02/02 00:49:15;;;;;;;7.35;2.30;;;;;;;;;;5092095;28;20646;-67
2022/02/02 00:51:46;;;;;;;5.50;2.17;;;;;;;;;;5092095;28;20040;-67
2022/02/02 00:54:14;;;;;;;5.40;2.15;;;;;;;;;;5091908;28;20056;-67
2022/02/02 00:56:42;;;;;;;4.85;2.33;;;;;;;;;;5092108;28;20051;-67
2022/02/02 00:59:10;;;;;;;7.63;3.03;;;;;;;;;;5095644;28;20055;-68
2022/02/02 01:01:38;;;;;;;7.13;2.72;;;;;;;;;;5095936;28;20477;-67
2022/02/02 01:04:06;;;;;;;5.60;2.70;;;;;;;;;;5095688;28;20054;-67
2022/02/02 01:06:37;;;;;;;5.90;3.00;;;;;;;;;;5095279;28;20048;-67
2022/02/02 01:09:22;;;;;;;5.85;2.40;;;;;;;;;;5095765;28;20060;-68
2022/02/02 01:12:35;;;;;;;5.50;2.78;;;;;;;;;;5095628;28;20066;-67
2022/02/02 01:18:17;;;;;;;6.80;2.65;;;;;;;;;;5052562;28;20044;-66
2022/02/02 01:20:54;;;;;;;4.80;2.63;;;;;;;;;;5090413;28;20101;-68
2022/02/02 01:28:54;;;;;;;4.78;2.58;;;;;;;;;;5095049;28;20051;-68
2022/02/02 01:31:21;;;;;;;4.03;1.95;;;;;;;;;;5095446;28;20066;-67
2022/02/02 01:33:49;;;;;;;4.60;2.28;;;;;;;;;;5095030;28;20055;-67
2022/02/02 01:36:16;;;;;;;3.95;1.98;;;;;;;;;;5095261;28;20052;-67
2022/02/02 01:38:45;;;;;;;4.80;2.20;;;;;;;;;;5094650;28;20040;-67
2022/02/02 01:41:20;;;;;;;4.65;2.00;;;;;;;;;;5095252;28;20047;-67
2022/02/02 01:43:55;;;;;;;4.03;1.95;;;;;;;;;;5095476;28;20082;-67
2022/02/02 01:46:25;;;;;;;4.05;1.75;;;;;;;;;;5094724;28;20063;-67
2022/02/02 01:49:00;;;;;;;4.90;2.30;;;;;;;;;;5094980;28;20169;-67
2022/02/02 01:54:18;;;;;;;3.67;1.55;;;;;;;;;;5092578;28;20476;-66
2022/02/02 01:56:46;;;;;;;3.38;1.80;;;;;;;;;;5094611;28;20105;-67
2022/02/02 01:59:23;;;;;;;4.82;1.80;;;;;;;;;;5094556;28;20118;-67
2022/02/02 02:01:51;;;;;;;3.40;1.58;;;;;;;;;;5094765;28;20048;-67
2022/02/02 02:04:18;;;;;;;4.82;2.00;;;;;;;;;;5094558;28;20405;-67
2022/02/02 02:06:45;;;;;;;4.32;2.13;;;;;;;;;;5094207;28;20048;-67
2022/02/02 02:09:12;;;;;;;3.47;1.50;;;;;;;;;;5092554;28;20052;-66
2022/02/02 02:11:43;;;;;;;5.28;2.47;;;;;;;;;;5094226;28;20048;-67
2022/02/02 02:17:08;;;;;;;3.60;1.92;;;;;;;;;;5093874;28;20059;-67
2022/02/02 02:19:37;;;;;;;4.05;2.00;;;;;;;;;;5094117;28;20134;-67
2022/02/02 02:22:07;;;;;;;3.85;1.63;;;;;;;;;;5094470;28;20062;-66
2022/02/02 02:24:38;;;;;;;5.22;1.98;;;;;;;;;;5094246;28;20052;-68
2022/02/02 02:27:05;;;;;;;3.25;1.77;;;;;;;;;;5094425;28;20055;-66
2022/02/02 02:29:47;;;;;;;5.97;2.28;;;;;;;;;;5094375;28;20048;-67
2022/02/02 02:32:31;;;;;;;4.72;2.10;;;;;;;;;;5094394;28;20404;-67
2022/02/02 02:35:18;;;;;;;3.25;1.80;;;;;;;;;;5093991;28;20052;-67
2022/02/02 02:38:23;;;;;;;4.28;2.03;;;;;;;;;;5093740;28;20052;-67
2022/02/02 02:57:20;;;;;;;5.75;2.85;;;;;;;;;;5093336;28;20428;-67
2022/02/02 03:00:04;;;;;;;7.80;3.00;;;;;;;;;;5093340;28;20060;-68
2022/02/02 03:03:17;;;;;;;7.28;3.35;;;;;;;;;;5093500;28;20142;-68
2022/02/02 03:30:35;;;;;;;4.85;2.70;;;;;;;;;;5130734;28;20105;-68
2022/02/02 03:49:52;;;;;;;5.63;2.63;;;;;;;;;;5129961;27;20108;-68
2022/02/02 03:53:01;;;;;;;6.13;3.03;;;;;;;;;;5129863;28;20054;-68
2022/02/02 03:55:27;;;;;;;6.82;3.10;;;;;;;;;;5129478;28;20043;-68
2022/02/02 03:58:13;;;;;;;6.28;2.60;;;;;;;;;;5129420;27;20143;-67
2022/02/02 04:00:55;;;;;;;4.88;2.28;;;;;;;;;;5130045;28;20134;-68
2022/02/02 04:03:38;;;;;;;5.35;2.20;;;;;;;;;;5129853;28;20159;-69
2022/02/02 04:06:08;;;;;;;7.43;2.28;;;;;;;;;;5129720;28;20051;-68
2022/02/02 04:08:37;;;;;;;5.80;2.38;;;;;;;;;;5129544;27;20420;-68
2022/02/02 04:11:13;;;;;;;6.82;2.72;;;;;;;;;;5129551;28;20055;-68
2022/02/02 04:52:37;;;;;;;6.90;2.08;;;;;;;;;;5074938;28;20517;-77
2022/02/02 04:55:11;;;;;;;4.65;1.20;;;;;;;;;;5074808;28;20414;-77
2022/02/02 04:58:04;;;;;;;7.40;1.95;;;;;;;;;;5074747;28;20101;-78
2022/02/02 05:06:02;;;;;;;7.80;1.73;;;;;;;;;;5053902;28;20055;-78
2022/02/02 05:08:36;;;;;;;6.45;1.70;;;;;;;;;;5057976;28;20049;-78
2022/02/02 05:11:29;;;;;;;5.90;1.50;;;;;;;;;;5056996;28;20049;-78
2022/02/02 05:16:54;;;;;;;7.55;1.90;;;;;;;;;;5058749;28;20064;-79
2022/02/02 05:22:41;;;;;;;11.10;2.17;;;;;;;;;;5059378;28;20454;-78
2022/02/02 05:44:47;;;;;;;6.20;2.38;;;;;;;;;;5056474;28;20045;-79
2022/02/02 05:50:22;;;;;;;5.35;1.27;;;;;;;;;;5056361;28;20469;-77
2022/02/02 05:52:51;;;;;;;8.35;1.77;;;;;;;;;;5056687;28;20048;-78
2022/02/02 05:55:17;;;;;;;4.75;1.70;;;;;;;;;;5055714;28;20049;-78
2022/02/02 05:57:46;;;;;;;5.50;2.22;;;;;;;;;;5056341;28;20044;-78
2022/02/02 06:00:16;;;;;;;5.20;1.80;;;;;;;;;;5054421;28;20065;-77
2022/02/02 06:02:47;;;;;;;5.55;1.98;;;;;;;;;;5054816;28;20110;-79
2022/02/02 06:05:14;;;;;;;6.97;2.13;;;;;;;;;;5061488;28;20107;-79
2022/02/02 06:07:43;;;;;;;6.63;1.80;;;;;;;;;;5063892;28;20045;-78
2022/02/02 06:10:14;;;;;;;5.40;1.70;;;;;;;;;;5056464;28;20393;-77
2022/02/02 06:12:42;;;;;;;6.03;2.00;;;;;;;;;;5054917;28;20437;-79
2022/02/02 06:15:13;;;;;;;6.00;2.08;;;;;;;;;;5063455;28;20041;-78
2022/02/02 06:17:45;;;;;;;;;;;;;;;;;;5054556;28;20099;-78
2022/02/02 06:20:12;;;;;;;5.60;2.65;;;;;;;;;;5054537;28;19960;-78
2022/02/02 06:22:43;;;;;;;7.53;3.30;;;;;;;;;;5054163;28;20056;-78
2022/02/02 06:25:18;;;;;;;7.70;3.05;;;;;;;;;;5054308;28;20085;-78
2022/02/02 06:27:52;;;;;;;10.60;3.22;;;;;;;;;;5053654;28;20084;-77
2022/02/02 06:30:20;;;;;;;6.85;3.38;;;;;;;;;;5052921;28;20500;-77
2022/02/02 06:32:50;;;;;;;7.75;2.10;;;;;;;;;;5053563;28;20156;-78
2022/02/02 06:35:19;;;;;;;6.20;2.78;;;;;;;;;;5053935;28;20049;-78
2022/02/02 06:37:47;;;;;;;10.25;1.92;;;;;;;;;;5052858;28;20052;-78
2022/02/02 06:40:17;;;;;;;11.55;2.42;;;;;;;;;;5053667;28;20045;-78
2022/02/02 06:42:44;;;;;;;8.15;2.13;;;;;;;;;;5057294;28;20053;-78
2022/02/02 06:45:13;;;;;;;7.68;2.13;;;;;;;;;;5059465;28;20059;-79
2022/02/02 06:47:40;;;;;;;8.52;1.77;;;;;;;;;;5057696;28;20122;-77
2022/02/02 06:50:17;;;;;;;7.97;2.15;;;;;;;;;;5055086;28;20048;-77
2022/02/02 06:52:50;;;;;;;6.53;1.83;;;;;;;;;;5054164;28;20531;-79
2022/02/02 06:55:29;;;;;;;6.63;2.20;;;;;;;;;;5052951;28;20446;-78
2022/02/02 06:58:19;;;;;;;8.23;2.60;;;;;;;;;;5053939;28;20059;-77
2022/02/02 07:01:02;;;;;;;4.97;2.20;;;;;;;;;;5053528;28;20053;-77
2022/02/02 07:03:45;;;;;;;6.95;2.40;;;;;;;;;;5053759;28;20144;-78
2022/02/02 07:06:24;;;;;;;6.95;2.85;;;;;;;;;;5055642;28;20127;-77
2022/02/02 07:09:14;;;;;;;9.27;3.00;;;;;;;;;;5052426;28;20052;-77
2022/02/02 07:11:58;;;;;;;11.80;3.83;;;;;;;;;;5053547;28;20135;-77
2022/02/02 07:14:36;;;;;;;11.93;3.55;;;;;;;;;;5053179;28;20060;-78
2022/02/02 07:17:16;;;;;;;10.20;3.33;;;;;;;;;;5052155;28;20064;-78
2022/02/02 07:19:56;;;;;;;9.50;3.58;;;;;;;;;;5057260;28;20060;-78
2022/02/02 07:22:47;;;;;;;14.50;3.65;;;;;;;;;;5058347;28;20049;-79
2022/02/02 07:27:58;;;;;;;12.40;3.63;;;;;;;;;;5058924;28;20048;-79
2022/02/02 07:30:41;;;;;;;9.18;2.58;;;;;;;;;;5064307;28;20045;-79
2022/02/02 07:33:15;;;;;;;12.65;2.70;;;;;;;;;;5057027;28;20091;-78
2022/02/02 07:36:02;;;;;;;19.23;2.95;;;;;;;;;;5060456;28;20053;-78
2022/02/02 07:38:39;;;;;;;13.25;3.28;;;;;;;;;;5067813;28;20111;-79
2022/02/02 07:41:08;;;;;;;9.48;2.45;;;;;;;;;;5065144;28;20475;-78
2022/02/02 07:43:41;;;;;;;10.73;2.78;;;;;;;;;;5063328;28;20144;-79
2022/02/02 07:46:09;;;;;;;13.27;3.00;;;;;;;;;;5064949;28;20060;-79
2022/02/02 07:48:38;;;;;;;10.60;3.03;;;;;;;;;;5060448;28;20059;-78
2022/02/02 07:51:06;;;;;;;10.88;2.78;;;;;;;;;;5056318;28;20053;-80
2022/02/02 07:53:39;;;;;;;9.20;2.70;;;;;;;;;;5057891;28;20055;-80
2022/02/02 07:56:11;;;;;;;9.30;3.58;;;;;;;;;;5058267;28;20049;-79
2022/02/02 07:58:41;;;;;;;8.48;3.20;;;;;;;;;;5061457;28;20110;-80
2022/02/02 08:01:08;;;;;;;8.20;2.63;;;;;;;;;;5061958;28;20067;-79
2022/02/02 08:03:39;;;;;;;12.23;4.60;;;;;;;;;;5063058;28;20459;-79
2022/02/02 08:06:09;;;;;;;16.30;4.55;;;;;;;;;;5061478;28;20049;-78
2022/02/02 08:08:41;;;;;;;8.93;2.70;;;;;;;;;;5059015;28;20049;-80
2022/02/02 08:11:10;;;;;;;13.65;3.47;;;;;;;;;;5064243;28;20476;-78
2022/02/02 08:13:40;;;;;;;9.90;3.15;;;;;;;;;;5061626;28;20051;-78
2022/02/02 08:16:10;;;;;;;9.30;2.92;;;;;;;;;;5061144;28;20041;-77
2022/02/02 08:18:38;;;;;;;10.75;3.70;;;;;;;;;;5065358;28;20140;-77
2022/02/02 08:21:05;;;;;;;9.07;2.92;;;;;;;;;;5060372;28;20128;-78
2022/02/02 08:23:32;;;;;;;14.48;3.92;;;;;;;;;;5059262;28;20385;-77
2022/02/02 08:26:03;;;;;;;13.57;3.28;;;;;;;;;;5055507;28;20106;-78
2022/02/02 08:28:33;;;;;;;10.90;3.70;;;;;;;;;;5062237;28;20088;-78
2022/02/02 08:31:00;;;;;;;16.42;3.47;;;;;;;;;;5060523;28;20053;-78
2022/02/02 08:33:33;;;;;;;18.40;3.05;;;;;;;;;;5056174;28;20045;-78
2022/02/02 08:36:02;;;;;;;11.45;3.10;;;;;;;;;;5059857;28;20048;-79
2022/02/02 08:38:42;;;;;;;14.50;3.20;;;;;;;;;;5067045;28;20067;-79
2022/02/02 08:41:14;;;;;;;12.15;3.28;;;;;;;;;;5066884;28;20499;-79
2022/02/02 08:43:45;;;;;;;15.55;3.40;;;;;;;;;;5061355;28;20071;-78
2022/02/02 08:46:20;;;;;;;11.88;3.80;;;;;;;;;;5061777;28;20502;-79
2022/02/02 08:48:48;;;;;;;18.10;3.30;;;;;;;;;;5061287;28;20056;-79
2022/02/02 08:51:18;;;;;;;13.88;3.58;;;;;;;;;;5062637;28;20052;-79
2022/02/02 08:53:56;;;;;;;16.13;3.70;;;;;;;;;;5061198;28;20053;-79
2022/02/02 08:59:23;;;;;;;14.77;5.57;;;;;;;;;;5040621;28;20686;-78
2022/02/02 09:01:51;;;;;;;10.45;3.15;;;;;;;;;;5041570;28;20117;-79
2022/02/02 09:07:02;;;;;;;15.02;3.80;;;;;;;;;;5040079;28;20056;-78
2022/02/02 09:09:47;;;;;;;19.42;4.60;;;;;;;;;;5040464;28;20049;-78
2022/02/02 09:23:34;;;;;;;13.52;3.05;;;;;;;;;;4990522;28;20066;-78
2022/02/02 09:31:48;;;;;;;13.65;2.90;;;;;;;;;;5038260;28;20067;-78
2022/02/02 09:34:18;;;;;;;11.80;2.92;;;;;;;;;;5042929;28;20049;-78
2022/02/02 09:36:46;;;;;;;13.60;5.35;;;;;;;;;;5040946;28;20061;-78
2022/02/02 09:39:19;;;;;;;9.30;2.92;;;;;;;;;;5037208;28;20057;-76
2022/02/02 09:41:48;;;;;;;14.57;4.28;;;;;;;;;;5037537;28;20053;-76
2022/02/02 09:44:21;;;;;;;16.73;4.78;;;;;;;;;;5038487;28;20117;-77
2022/02/02 09:46:56;;;;;;;11.52;3.42;;;;;;;;;;5056542;28;20053;-76
2022/02/02 09:49:29;;;;;;;13.73;4.30;;;;;;;;;;5056583;28;20055;-77
2022/02/02 09:52:01;;;;;;;14.85;3.97;;;;;;;;;;5054460;28;20144;-78
2022/02/02 09:54:34;;;;;;;14.50;3.53;;;;;;;;;;5052433;28;20049;-79
2022/02/02 09:59:59;;;;;;;11.85;3.20;;;;;;;;;;5054984;28;20059;-79
2022/02/02 10:02:36;;;;;;;20.20;3.45;;;;;;;;;;5055593;28;20045;-78
2022/02/02 10:05:13;;;;;;;11.88;3.10;;;;;;;;;;5056924;28;20464;-79
2022/02/02 10:08:08;;;;;;;12.10;3.40;;;;;;;;;;5057572;28;20049;-78
2022/02/02 10:10:56;;;;;;;13.85;3.30;;;;;;;;;;5064285;28;20053;-78
2022/02/02 10:13:27;;;;;;;10.68;3.10;;;;;;;;;;5063144;28;20053;-77
2022/02/02 10:15:57;;;;;;;11.57;3.35;;;;;;;;;;5058525;28;20067;-79
2022/02/02 10:18:34;;;;;;;11.40;2.97;;;;;;;;;;5063687;28;20126;-81
2022/02/02 10:21:02;;;;;;;11.70;3.13;;;;;;;;;;5062024;28;20049;-81
2022/02/02 10:23:30;;;;;;;12.60;2.92;;;;;;;;;;5062711;28;20045;-81
2022/02/02 10:26:13;;;;;;;9.73;3.38;;;;;;;;;;5062726;28;20060;-81
2022/02/02 10:28:40;;;;;;;10.05;3.35;;;;;;;;;;5063333;28;20049;-83
2022/02/02 10:31:09;;;;;;;11.85;3.42;;;;;;;;;;5061102;28;20049;-79
2022/02/02 10:33:37;;;;;;;13.00;3.45;;;;;;;;;;5059171;28;20087;-79
2022/02/02 10:36:13;;;;;;;14.63;3.80;;;;;;;;;;5061315;28;20072;-79
2022/02/02 10:38:47;;;;;;;13.55;3.60;;;;;;;;;;5062061;28;20036;-80
2022/02/02 10:41:22;;;;;;;11.27;3.45;;;;;;;;;;5060910;28;20121;-79
2022/02/02 10:43:54;;;;;;;12.40;4.05;;;;;;;;;;5061623;28;20052;-79
2022/02/02 10:46:29;;;;;;;11.70;4.03;;;;;;;;;;5062393;28;20075;-79
2022/02/02 10:49:02;;;;;;;15.20;6.18;;;;;;;;;;5060535;28;20049;-78
2022/02/02 10:51:39;;;;;;;15.93;4.53;;;;;;;;;;5045116;28;20049;-79
2022/02/02 10:54:17;;;;;;;14.30;3.95;;;;;;;;;;5040449;28;20108;-79
2022/02/02 10:56:50;;;;;;;13.05;3.45;;;;;;;;;;5041004;28;20699;-79
2022/02/02 10:59:38;;;;;;;16.77;4.30;;;;;;;;;;5041769;28;20686;-80
2022/02/02 11:07:36;;;;;;;13.27;3.10;;;;;;;;;;5043625;28;20063;-80
2022/02/02 11:10:05;;;;;;;11.60;3.30;;;;;;;;;;5042081;28;20057;-80
2022/02/02 11:12:38;;;;;;;15.30;3.45;;;;;;;;;;5042068;28;20084;-79
2022/02/02 11:15:19;;;;;;;11.50;3.28;;;;;;;;;;5043802;28;20061;-79
2022/02/02 11:17:55;;;;;;;11.82;3.80;;;;;;;;;;5040692;28;20077;-79
2022/02/02 11:20:24;;;;;;;14.23;3.85;;;;;;;;;;5043294;28;20056;-79
2022/02/02 11:22:53;;;;;;;17.10;3.53;;;;;;;;;;5040887;28;20096;-78
2022/02/02 11:25:33;;;;;;;14.43;3.58;;;;;;;;;;5035477;28;20050;-78
2022/02/02 11:28:03;;;;;;;9.13;3.03;;;;;;;;;;5034327;28;20046;-78
2022/02/02 11:30:41;;;;;;;13.05;3.13;;;;;;;;;;5036163;28;20049;-78
2022/02/02 11:33:24;;;;;;;12.68;3.08;;;;;;;;;;5035593;28;20056;-79
2022/02/02 11:35:55;;;;;;;16.20;3.55;;;;;;;;;;5035986;28;20064;-78
2022/02/02 11:38:38;;;;;;;;;;;;;;;;;;5042579;28;20045;-81
2022/02/02 11:41:34;;;;;;;14.60;3.72;;;;;;;;;;5042245;28;19921;-81
2022/02/02 11:44:09;;;;;;;11.95;2.95;;;;;;;;;;5044543;28;20072;-87
2022/02/02 11:46:49;;;;;;;16.75;3.83;;;;;;;;;;5043556;28;20053;-86
2022/02/02 11:49:29;;;;;;;13.65;4.15;;;;;;;;;;5043440;28;20558;-83
2022/02/02 11:51:59;;;;;;;20.02;3.97;;;;;;;;;;5042125;28;20046;-78
2022/02/02 11:54:49;;;;;;;15.53;3.73;;;;;;;;;;5043518;28;20140;-78
2022/02/02 11:57:23;;;;;;;10.10;2.90;;;;;;;;;;5043684;28;20042;-79
2022/02/02 12:00:07;;;;;;;14.77;4.28;;;;;;;;;;5036259;28;20633;-76
2022/02/02 12:05:46;;;;;;;11.23;3.45;;;;;;;;;;5023462;28;20055;-77
2022/02/02 12:08:29;;;;;;;12.90;3.40;;;;;;;;;;5034968;28;20135;-77
2022/02/02 12:11:17;;;;;;;13.52;3.13;;;;;;;;;;5033646;28;20127;-77
2022/02/02 12:35:54;;;;;;;15.27;4.47;;;;;;;;;;5033902;28;20057;-77
2022/02/02 12:50:26;;;;;;;;;;;;;;;;;;5057407;28;20045;-77
2022/02/02 12:58:29;;;;;;;10.77;3.50;;;;;;;;;;5059670;28;20094;-77
2022/02/02 13:01:09;;;;;;;11.73;2.75;;;;;;;;;;5052548;28;20049;-77
2022/02/02 13:03:38;;;;;;;7.70;2.55;;;;;;;;;;5040274;28;20456;-77
2022/02/02 13:06:11;;;;;;;8.00;2.25;;;;;;;;;;5042039;28;20053;-76
2022/02/02 13:08:38;;;;;;;11.20;3.42;;;;;;;;;;5034901;28;20084;-77
2022/02/02 13:11:06;;;;;;;9.52;2.58;;;;;;;;;;5034405;28;20508;-77
2022/02/02 13:13:33;;;;;;;10.05;3.00;;;;;;;;;;5032792;28;20052;-77
2022/02/02 13:16:07;;;;;;;14.27;3.47;;;;;;;;;;5032968;28;20582;-77
2022/02/02 13:18:37;;;;;;;13.25;2.80;;;;;;;;;;5032911;28;20045;-77
2022/02/02 13:21:12;;;;;;;7.43;2.42;;;;;;;;;;5034696;28;20056;-77
2022/02/02 13:23:53;;;;;;;8.00;3.10;;;;;;;;;;5036126;28;20045;-77
2022/02/02 13:26:29;;;;;;;9.65;2.80;;;;;;;;;;5054816;28;20525;-77
2022/02/02 13:29:02;;;;;;;12.57;3.35;;;;;;;;;;5055402;28;20048;-77
2022/02/02 13:31:39;;;;;;;11.10;3.35;;;;;;;;;;5056054;28;20053;-77
2022/02/02 13:34:14;;;;;;;12.45;3.50;;;;;;;;;;5055158;28;20059;-77
2022/02/02 13:36:53;;;;;;;19.15;5.30;;;;;;;;;;5059564;28;20134;-77
2022/02/02 13:48:28;;;;;;;12.35;3.42;;;;;;;;;;5036755;28;20109;-76
2022/02/02 13:51:08;;;;;;;14.20;3.78;;;;;;;;;;5063897;28;20051;-77
2022/02/02 13:54:03;;;;;;;10.35;3.33;;;;;;;;;;5053288;28;20055;-77
2022/02/02 14:05:20;;;;;;;11.32;3.85;;;;;;;;;;5031004;28;20527;-76
2022/02/02 14:07:57;;;;;;;11.32;3.83;;;;;;;;;;5033041;28;20065;-76
2022/02/02 14:32:22;;;;;;;9.93;3.58;;;;;;;;;;5056172;28;20518;-77
2022/02/02 14:34:48;;;;;;;7.25;2.83;;;;;;;;;;5054120;28;20060;-77
2022/02/02 14:37:19;;;;;;;12.77;3.92;;;;;;;;;;5052829;28;20049;-76
2022/02/02 14:39:56;;;;;;;11.27;2.90;;;;;;;;;;5051596;28;20057;-76
2022/02/02 14:42:27;;;;;;;10.43;3.08;;;;;;;;;;5037024;28;20108;-78
2022/02/02 14:45:01;;;;;;;9.30;2.50;;;;;;;;;;5033290;28;20052;-76
2022/02/02 14:47:35;;;;;;;11.45;3.20;;;;;;;;;;5030955;28;20077;-77
2022/02/02 14:50:10;;;;;;;11.65;3.03;;;;;;;;;;5031270;28;20050;-77
2022/02/02 14:52:49;;;;;;;7.63;2.30;;;;;;;;;;5031218;28;20045;-77
2022/02/02 14:55:49;;;;;;;8.38;2.25;;;;;;;;;;5031043;28;20042;-77
2022/02/02 15:28:33;;;;;;;13.95;4.18;;;;;;;;;;5030830;28;20067;-77
2022/02/02 15:31:02;;;;;;;7.10;2.70;;;;;;;;;;5030896;28;20053;-77
2022/02/02 15:33:31;;;;;;;12.45;4.03;;;;;;;;;;5040027;28;20107;-78
2022/02/02 15:36:26;;;;;;;11.13;4.05;;;;;;;;;;5044022;28;20107;-78
2022/02/02 15:38:54;;;;;;;13.45;2.90;;;;;;;;;;5052171;28;20045;-79
2022/02/02 15:41:27;;;;;;;11.30;3.45;;;;;;;;;;5052316;28;20072;-77
2022/02/02 15:44:56;;;;;;;10.05;3.45;;;;;;;;;;5053243;28;20048;-76
2022/02/02 15:55:07;;;;;;;11.13;4.00;;;;;;;;;;5054112;28;20111;-78
2022/02/02 16:03:24;;;;;;;11.73;3.75;;;;;;;;;;4993729;28;20146;-78
2022/02/02 16:05:54;;;;;;;11.68;4.05;;;;;;;;;;5026862;28;20049;-78
2022/02/02 16:08:25;;;;;;;11.80;4.57;;;;;;;;;;5042289;28;20330;-78
2022/02/02 16:11:02;;;;;;;13.27;4.30;;;;;;;;;;5041104;28;20500;-77
2022/02/02 16:13:31;;;;;;;13.05;4.10;;;;;;;;;;5034705;28;20607;-78
2022/02/02 16:16:02;;;;;;;14.77;3.88;;;;;;;;;;5035960;28;20096;-77
2022/02/02 16:18:40;;;;;;;14.82;4.20;;;;;;;;;;5033596;28;20045;-78
2022/02/02 16:35:15;;;;;;;13.50;4.03;;;;;;;;;;5045169;28;20106;-77
2022/02/02 16:37:44;;;;;;;11.00;3.72;;;;;;;;;;5041629;28;20504;-78
2022/02/02 16:40:17;;;;;;;13.57;4.05;;;;;;;;;;5040010;28;20045;-77
2022/02/02 16:45:38;;;;;;;9.82;2.95;;;;;;;;;;5001357;28;20099;-78
2022/02/02 16:48:06;;;;;;;10.20;4.75;;;;;;;;;;5038113;28;20079;-77
2022/02/02 16:50:36;;;;;;;8.00;2.50;;;;;;;;;;5034562;28;20045;-77
2022/02/02 16:53:07;;;;;;;8.25;2.50;;;;;;;;;;5035064;28;20045;-77
2022/02/02 16:55:42;;;;;;;11.05;4.00;;;;;;;;;;5039434;28;20045;-78
2022/02/02 17:24:08;;;;;;;11.07;3.65;;;;;;;;;;5038679;28;20052;-77
2022/02/02 17:31:23;;;;;;;8.77;3.03;;;;;;;;;;5033738;28;20171;-77
2022/02/02 17:33:54;;;;;;;10.40;3.80;;;;;;;;;;5037037;28;20105;-78
2022/02/02 17:36:26;;;;;;;12.65;3.70;;;;;;;;;;5036924;28;20068;-78
2022/02/02 17:38:57;;;;;;;14.00;3.50;;;;;;;;;;5034342;28;20049;-77
2022/02/02 17:44:20;;;;;;;15.30;4.15;;;;;;;;;;5034222;28;20057;-77
2022/02/02 18:03:55;;;;;;;13.48;4.25;;;;;;;;;;5038632;28;20060;-78
2022/02/02 18:20:33;;;;;;;13.20;4.65;;;;;;;;;;4971378;28;20058;-77
2022/02/02 18:23:06;;;;;;;14.07;4.40;;;;;;;;;;5033446;28;20053;-78
2022/02/02 18:25:41;;;;;;;10.88;4.82;;;;;;;;;;5078083;28;20057;-78
2022/02/02 18:28:13;;;;;;;13.40;4.28;;;;;;;;;;5075220;28;20041;-79
2022/02/02 18:30:53;;;;;;;9.18;3.55;;;;;;;;;;5056220;28;20059;-80
2022/02/02 18:33:34;;;;;;;11.73;4.43;;;;;;;;;;5060960;28;20519;-81
2022/02/02 18:36:16;;;;;;;15.20;4.53;;;;;;;;;;5067059;28;20052;-79
2022/02/02 18:47:19;;;;;;;14.98;4.95;;;;;;;;;;5031706;28;20068;-78
2022/02/02 18:50:02;;;;;;;15.30;5.85;;;;;;;;;;5060316;28;20048;-77
2022/02/02 18:55:24;;;;;;;17.33;4.72;;;;;;;;;;5055984;28;20695;-77
2022/02/02 18:58:02;;;;;;;14.18;4.40;;;;;;;;;;5055200;28;20052;-77
2022/02/02 19:03:40;;;;;;;9.00;3.58;;;;;;;;;;5057106;28;20060;-79
2022/02/02 19:31:26;;;;;;;12.02;4.40;;;;;;;;;;5052587;28;20705;-78
2022/02/02 19:56:19;;;;;;;12.43;5.10;;;;;;;;;;5061779;28;20105;-79
2022/02/02 20:07:11;;;;;;;15.93;6.35;;;;;;;;;;5028076;28;20049;-77
2022/02/02 20:10:02;;;;;;;14.18;6.18;;;;;;;;;;5062422;28;20088;-78
2022/02/02 20:12:33;;;;;;;16.63;5.75;;;;;;;;;;5062402;28;20049;-78
2022/02/02 20:15:01;;;;;;;15.60;6.13;;;;;;;;;;5056606;28;20049;-78
2022/02/02 20:17:28;;;;;;;13.77;5.80;;;;;;;;;;5055125;28;20099;-78
2022/02/02 20:19:58;;;;;;;15.90;6.10;;;;;;;;;;5060464;28;20102;-78
2022/02/02 20:22:28;;;;;;;11.65;4.93;;;;;;;;;;5060424;28;20053;-78
2022/02/02 20:24:58;;;;;;;14.05;5.72;;;;;;;;;;5047220;28;20049;-78
2022/02/02 20:27:27;;;;;;;13.50;5.72;;;;;;;;;;5036405;28;20053;-78
2022/02/02 20:29:55;;;;;;;14.43;5.95;;;;;;;;;;5035831;28;20054;-78
2022/02/02 20:32:22;;;;;;;11.32;4.95;;;;;;;;;;5035912;28;20045;-78
2022/02/02 20:34:49;;;;;;;13.20;5.50;;;;;;;;;;5035623;28;20115;-77
2022/02/02 20:37:18;;;;;;;13.52;6.15;;;;;;;;;;5036135;28;20046;-78
2022/02/02 20:39:52;;;;;;;16.83;6.45;;;;;;;;;;5036074;28;20046;-79
2022/02/02 20:42:26;;;;;;;13.80;6.22;;;;;;;;;;5041381;28;20045;-78
2022/02/02 20:45:15;;;;;;;14.95;6.22;;;;;;;;;;5041049;28;20055;-77
2022/02/02 21:04:22;;;;;;;15.93;7.10;;;;;;;;;;5038523;28;20041;-78
2022/02/02 21:07:03;;;;;;;16.30;5.93;;;;;;;;;;5043444;28;20061;-76
2022/02/02 21:09:51;;;;;;;14.02;5.78;;;;;;;;;;5059549;28;20036;-78
2022/02/02 21:15:10;;;;;;;13.95;6.72;;;;;;;;;;5049511;28;20056;-77
2022/02/02 21:17:40;;;;;;;14.82;6.25;;;;;;;;;;5039397;28;20515;-76
2022/02/02 21:20:13;;;;;;;9.25;4.90;;;;;;;;;;5034784;28;20053;-77
2022/02/02 21:22:49;;;;;;;14.13;5.65;;;;;;;;;;5034072;28;20049;-77
2022/02/02 21:28:14;;;;;;;13.13;5.13;;;;;;;;;;5033571;28;20175;-77
2022/02/02 21:30:43;;;;;;;13.18;6.03;;;;;;;;;;5033839;28;20044;-77
2022/02/02 21:33:15;;;;;;;13.18;6.40;;;;;;;;;;5034016;28;20045;-78
2022/02/02 21:35:43;;;;;;;17.17;6.25;;;;;;;;;;5036202;28;20045;-77
2022/02/02 21:38:17;;;;;;;14.05;6.47;;;;;;;;;;5033434;28;20059;-78
2022/02/02 21:40:50;;;;;;;12.27;5.82;;;;;;;;;;5033883;28;20049;-80
2022/02/02 21:43:17;;;;;;;15.15;6.60;;;;;;;;;;5037030;28;20715;-78
2022/02/02 21:45:44;;;;;;;17.15;6.63;;;;;;;;;;5033673;28;20132;-78
2022/02/02 21:48:12;;;;;;;13.23;6.35;;;;;;;;;;5032307;28;20045;-78
2022/02/02 21:50:47;;;;;;;16.13;6.50;;;;;;;;;;5033882;28;20414;-78
2022/02/02 21:53:14;;;;;;;11.80;5.28;;;;;;;;;;5034323;28;20056;-78
2022/02/02 21:55:41;;;;;;;12.88;5.93;;;;;;;;;;5046644;28;20108;-78
2022/02/02 21:58:08;;;;;;;17.50;5.53;;;;;;;;;;5054391;28;20042;-79
2022/02/02 22:00:35;;;;;;;8.93;4.32;;;;;;;;;;5050385;28;20076;-78
2022/02/02 22:03:02;;;;;;;11.70;5.30;;;;;;;;;;5050427;28;20083;-77
2022/02/02 22:05:30;;;;;;;10.85;4.75;;;;;;;;;;5050716;28;20053;-77
2022/02/02 22:07:57;;;;;;;11.52;5.25;;;;;;;;;;5049323;28;20071;-78
2022/02/02 22:10:24;;;;;;;11.57;5.32;;;;;;;;;;5051239;28;20053;-77
2022/02/02 22:12:51;;;;;;;10.20;4.30;;;;;;;;;;5051945;28;20044;-77
2022/02/02 22:15:23;;;;;;;11.55;5.13;;;;;;;;;;5046727;28;20115;-78
2022/02/02 22:17:50;;;;;;;12.55;5.43;;;;;;;;;;5050440;28;20064;-78
2022/02/02 22:20:19;;;;;;;10.10;4.97;;;;;;;;;;5048544;28;20044;-78
2022/02/02 22:22:48;;;;;;;8.90;4.90;;;;;;;;;;5058091;22;20045;-79
2022/02/02 22:25:18;;;;;;;11.95;5.03;;;;;;;;;;5051530;28;20051;-78
2022/02/02 22:27:44;;;;;;;8.82;4.78;;;;;;;;;;5050644;28;20045;-79
2022/02/02 22:30:11;;;;;;;10.88;4.50;;;;;;;;;;5051538;28;20056;-80
2022/02/02 22:32:38;;;;;;;12.57;5.15;;;;;;;;;;5063709;28;20117;-80
2022/02/02 22:35:05;;;;;;;10.32;4.78;;;;;;;;;;5070031;28;20045;-80
2022/02/02 22:37:32;;;;;;;9.75;4.55;;;;;;;;;;5072251;28;20090;-80
2022/02/02 22:40:03;;;;;;;12.02;5.20;;;;;;;;;;5074277;28;20694;-80
2022/02/02 22:42:30;;;;;;;14.43;5.03;;;;;;;;;;5073477;28;20068;-80
2022/02/02 22:45:01;;;;;;;10.02;5.03;;;;;;;;;;5074092;28;20047;-81
2022/02/02 22:47:29;;;;;;;9.13;4.45;;;;;;;;;;5076330;28;20044;-81
2022/02/02 22:49:57;;;;;;;12.15;5.10;;;;;;;;;;5076977;28;20048;-81
2022/02/02 22:52:25;;;;;;;13.70;5.00;;;;;;;;;;5074940;28;20054;-81
2022/02/02 22:54:51;;;;;;;10.40;4.55;;;;;;;;;;5075483;28;20102;-81
2022/02/02 22:57:22;;;;;;;9.57;5.03;;;;;;;;;;5079162;28;20369;-81
2022/02/02 22:59:50;;;;;;;9.07;4.63;;;;;;;;;;5078752;28;20068;-81
2022/02/02 23:02:36;;;;;;;11.18;4.90;;;;;;;;;;5078085;28;20048;-81
2022/02/02 23:05:03;;;;;;;11.27;5.65;;;;;;;;;;5076911;28;20052;-81
2022/02/02 23:07:30;;;;;;;12.95;5.00;;;;;;;;;;5076775;28;20050;-80
2022/02/02 23:09:57;;;;;;;10.32;4.43;;;;;;;;;;5076523;28;20049;-80
2022/02/02 23:12:27;;;;;;;9.60;4.45;;;;;;;;;;5077210;28;20131;-80